createdAt,value
2023-03-02T07:53:15.528Z,-0.34
2023-03-02T07:54:16.616Z,-0.29
2023-03-02T07:55:16.732Z,-0.18
2023-03-02T07:56:16.801Z,-0.04
2023-03-02T07:57:16.936Z,0.15
2023-03-02T07:58:16.983Z,0.28
2023-03-02T07:59:17.078Z,0.45
2023-03-02T08:00:17.153Z,0.61
2023-03-02T08:01:17.264Z,0.75
2023-03-02T08:02:17.371Z,0.88
2023-03-02T08:03:17.427Z,1.00
2023-03-02T08:04:17.548Z,1.12
2023-03-02T08:05:17.616Z,1.21
2023-03-02T08:06:17.724Z,1.29
2023-03-02T08:07:17.855Z,1.40
2023-03-02T08:08:17.847Z,1.46
2023-03-02T08:09:18.090Z,1.55
2023-03-02T08:10:18.014Z,1.61
2023-03-02T08:11:18.113Z,1.71
2023-03-02T08:12:18.193Z,1.76
2023-03-02T08:13:18.255Z,1.82
2023-03-02T08:14:18.338Z,1.89
2023-03-02T08:15:18.396Z,1.94
2023-03-02T08:16:18.516Z,2.01
2023-03-02T08:17:18.581Z,2.06
2023-03-02T08:18:18.629Z,2.10
2023-03-02T08:19:18.703Z,2.12
2023-03-02T08:20:18.769Z,2.17
2023-03-02T08:21:18.856Z,2.22
2023-03-02T08:22:18.984Z,2.27
2023-03-02T08:23:19.129Z,2.30
2023-03-02T08:24:19.120Z,2.34
2023-03-02T08:25:19.188Z,2.38
2023-03-02T08:26:19.283Z,2.44
2023-03-02T08:27:19.356Z,2.48
2023-03-02T08:28:19.432Z,2.49
2023-03-02T08:29:19.538Z,2.53
2023-03-02T08:30:19.636Z,2.56
2023-03-02T08:31:19.790Z,2.56
2023-03-02T08:32:19.840Z,2.61
2023-03-02T08:33:19.855Z,2.63
2023-03-02T08:34:19.964Z,2.66
2023-03-02T08:35:20.037Z,2.69
2023-03-02T08:36:20.125Z,2.70
2023-03-02T08:37:20.200Z,2.73
2023-03-02T08:38:20.279Z,2.73
2023-03-02T08:39:20.333Z,2.76
2023-03-02T08:40:20.450Z,2.79
2023-03-02T08:41:20.513Z,2.79
2023-03-02T08:42:20.623Z,2.81
2023-03-02T08:45:56.566Z,2.73
2023-03-02T08:46:57.439Z,2.69
2023-03-02T08:47:57.440Z,2.69
2023-03-02T08:48:57.554Z,2.69
2023-03-02T08:49:57.610Z,2.70
2023-03-02T08:50:57.707Z,2.71
2023-03-02T08:51:57.765Z,2.70
2023-03-02T08:52:57.860Z,2.74
2023-03-02T08:53:57.928Z,2.73
2023-03-02T08:54:58.117Z,2.73
2023-03-02T08:55:58.144Z,2.74
2023-03-02T08:56:58.193Z,2.76
2023-03-02T08:57:58.300Z,2.77
2023-03-02T08:58:58.340Z,2.79
2023-03-02T08:59:58.391Z,2.79
2023-03-02T09:00:58.575Z,2.81
2023-03-02T09:01:58.567Z,2.81
2023-03-02T09:02:58.622Z,2.81
2023-03-02T09:03:58.703Z,2.84
2023-03-02T09:04:58.821Z,2.82
2023-03-02T09:05:58.835Z,2.84
2023-03-02T09:06:58.958Z,2.84
2023-03-02T09:07:59.036Z,2.84
2023-03-02T09:08:59.083Z,2.85
2023-03-02T09:09:59.136Z,2.85
2023-03-02T09:10:59.238Z,2.85
2023-03-02T09:11:59.327Z,2.87
2023-03-02T09:12:59.444Z,2.87
2023-03-02T09:14:08.013Z,2.87
2023-03-02T09:14:59.611Z,2.87
2023-03-02T09:15:59.702Z,2.88
2023-03-02T09:16:59.904Z,2.88
2023-03-02T09:17:59.927Z,2.88
2023-03-02T09:18:59.994Z,2.88
2023-03-02T09:20:00.040Z,2.88
2023-03-02T09:21:00.146Z,2.87
2023-03-02T09:22:00.200Z,2.88
2023-03-02T09:23:00.326Z,2.88
2023-03-02T09:24:00.380Z,2.88
2023-03-02T09:25:00.486Z,2.87
2023-03-02T09:26:00.546Z,2.85
2023-03-02T09:27:00.748Z,2.87
2023-03-02T09:28:00.730Z,2.85
2023-03-02T09:29:00.798Z,2.84
2023-03-02T09:30:00.847Z,2.84
2023-03-02T09:31:00.965Z,2.85
2023-03-02T09:32:01.207Z,2.85
2023-03-02T09:33:01.242Z,2.85
2023-03-02T09:34:01.189Z,2.85
2023-03-02T09:35:01.289Z,2.85
2023-03-02T09:36:01.571Z,2.85
2023-03-02T09:37:01.478Z,2.87
2023-03-02T09:38:01.619Z,2.88
2023-03-02T09:39:01.600Z,2.89
2023-03-02T09:40:01.640Z,2.89
2023-03-02T09:41:01.744Z,2.89
2023-03-02T09:42:01.801Z,2.89
2023-03-02T09:43:01.927Z,2.89
2023-03-02T09:44:01.979Z,2.91
2023-03-02T09:45:02.119Z,2.91
2023-03-02T09:46:02.243Z,2.94
2023-03-02T09:47:02.276Z,2.94
2023-03-02T09:48:02.350Z,2.95
2023-03-02T09:49:03.296Z,2.95
2023-03-02T09:50:02.534Z,2.95
2023-03-02T09:51:02.618Z,2.97
2023-03-02T09:52:02.673Z,2.97
2023-03-02T09:53:02.796Z,2.98
2023-03-02T09:54:02.892Z,3.00
2023-03-02T09:55:02.921Z,3.02
2023-03-02T09:56:02.979Z,3.03
2023-03-02T09:57:03.099Z,3.05
2023-03-02T09:58:03.174Z,3.05
2023-03-02T09:59:03.219Z,3.07
2023-03-02T10:00:12.925Z,3.06
2023-03-02T10:01:03.423Z,3.09
2023-03-02T10:02:03.483Z,3.10
2023-03-02T10:03:16.270Z,3.12
2023-03-02T10:04:03.842Z,3.13
2023-03-02T10:05:03.760Z,3.13
2023-03-02T10:06:03.845Z,3.15
2023-03-02T10:07:03.913Z,3.16
2023-03-02T10:08:03.982Z,3.16
2023-03-02T10:09:04.086Z,3.18
2023-03-02T10:10:04.129Z,3.20
2023-03-02T10:11:04.232Z,3.16
2023-03-02T10:12:04.328Z,3.18
2023-03-02T10:13:04.441Z,3.18
2023-03-02T10:14:04.502Z,3.20
2023-03-02T10:15:04.589Z,3.20
2023-03-02T10:16:04.703Z,3.20
2023-03-02T10:17:04.745Z,3.23
2023-03-02T10:18:05.021Z,3.21
2023-03-02T10:19:05.654Z,3.20
2023-03-02T10:20:05.017Z,3.23
2023-03-02T10:21:05.117Z,3.20
2023-03-02T10:22:05.192Z,3.21
2023-03-02T10:23:05.310Z,3.24
2023-03-02T10:24:05.358Z,3.24
2023-03-02T10:25:05.458Z,3.27
2023-03-02T10:26:05.550Z,3.28
2023-03-02T10:27:05.666Z,3.31
2023-03-02T10:28:05.789Z,3.34
2023-03-02T10:29:05.843Z,3.36
2023-03-02T10:30:05.916Z,3.39
2023-03-02T10:31:06.069Z,3.42
2023-03-02T10:32:06.129Z,3.43
2023-03-02T10:33:06.234Z,3.43
2023-03-02T10:34:06.261Z,3.47
2023-03-02T10:35:06.376Z,3.47
2023-03-02T10:36:06.407Z,3.49
2023-03-02T10:37:06.533Z,3.50
2023-03-02T10:38:06.601Z,3.52
2023-03-02T10:39:06.699Z,3.53
2023-03-02T10:40:06.770Z,3.57
2023-03-02T10:41:06.847Z,3.57
2023-03-02T10:42:06.980Z,3.58
2023-03-02T10:43:07.061Z,3.58
2023-03-02T10:44:07.136Z,3.60
2023-03-02T10:45:07.245Z,3.62
2023-03-02T10:46:07.377Z,3.64
2023-03-02T10:47:07.387Z,3.65
2023-03-02T10:48:07.458Z,3.67
2023-03-02T10:49:07.510Z,3.67
2023-03-02T10:50:07.562Z,3.68
2023-03-02T10:51:07.725Z,3.68
2023-03-02T10:52:07.740Z,3.71
2023-03-02T10:53:07.881Z,3.71
2023-03-02T10:54:07.903Z,3.72
2023-03-02T10:55:08.112Z,3.75
2023-03-02T10:56:08.073Z,3.75
2023-03-02T10:57:08.173Z,3.76
2023-03-02T10:58:08.296Z,3.78
2023-03-02T10:59:08.362Z,3.79
2023-03-02T11:00:08.458Z,3.80
2023-03-02T11:01:08.563Z,3.83
2023-03-02T11:02:08.623Z,3.83
2023-03-02T11:03:08.772Z,3.85
2023-03-02T11:04:08.792Z,3.88
2023-03-02T11:05:09.016Z,3.86
2023-03-02T11:06:08.958Z,3.88
2023-03-02T11:07:09.034Z,3.89
2023-03-02T11:08:09.145Z,3.90
2023-03-02T11:09:09.201Z,3.92
2023-03-02T11:10:09.281Z,3.92
2023-03-02T11:11:09.343Z,3.96
2023-03-02T11:12:09.468Z,3.96
2023-03-02T11:13:09.486Z,3.97
2023-03-02T11:14:09.536Z,3.97
2023-03-02T11:15:09.672Z,3.98
2023-03-02T11:16:09.755Z,4.01
2023-03-02T11:17:09.809Z,4.01
2023-03-02T11:18:09.919Z,4.01
2023-03-02T11:19:09.944Z,4.03
2023-03-02T11:20:09.986Z,4.06
2023-03-02T11:21:10.096Z,4.06
2023-03-02T11:22:10.197Z,4.07
2023-03-02T11:23:10.313Z,4.08
2023-03-02T11:24:10.711Z,4.10
2023-03-02T11:25:10.462Z,4.12
2023-03-02T11:26:10.509Z,4.14
2023-03-02T11:27:10.611Z,4.14
2023-03-02T11:28:10.713Z,4.16
2023-03-02T11:29:10.764Z,4.16
2023-03-02T11:30:10.845Z,4.19
2023-03-02T11:31:11.021Z,4.18
2023-03-02T11:32:11.063Z,4.19
2023-03-02T11:33:11.122Z,4.21
2023-03-02T11:34:17.332Z,4.22
2023-03-02T11:35:11.275Z,4.22
2023-03-02T11:36:11.292Z,4.24
2023-03-02T11:37:11.358Z,4.24
2023-03-02T11:38:11.419Z,4.25
2023-03-02T11:39:11.522Z,4.22
2023-03-02T11:40:11.600Z,4.24
2023-03-02T11:41:11.718Z,4.25
2023-03-02T11:42:11.821Z,4.24
2023-03-02T11:43:11.917Z,4.25
2023-03-02T11:44:11.974Z,4.26
2023-03-02T11:45:12.736Z,4.26
2023-03-02T11:46:21.454Z,4.29
2023-03-02T11:47:12.329Z,4.28
2023-03-02T11:48:12.321Z,4.28
2023-03-02T11:49:12.403Z,4.29
2023-03-02T11:50:12.484Z,4.28
2023-03-02T11:51:12.578Z,4.32
2023-03-02T11:52:12.656Z,4.33
2023-03-02T11:53:12.838Z,4.32
2023-03-02T11:54:12.866Z,4.34
2023-03-02T11:55:12.916Z,4.34
2023-03-02T11:56:13.034Z,4.34
2023-03-02T11:57:13.056Z,4.34
2023-03-02T11:58:13.191Z,4.36
2023-03-02T11:59:13.257Z,4.34
2023-03-02T12:00:13.371Z,4.33
2023-03-02T12:01:13.414Z,4.34
2023-03-02T12:02:13.561Z,4.33
2023-03-02T12:03:13.628Z,4.33
2023-03-02T12:04:13.686Z,4.36
2023-03-02T12:05:13.828Z,4.34
2023-03-02T12:06:13.837Z,4.37
2023-03-02T12:07:13.934Z,4.36
2023-03-02T12:08:14.063Z,4.37
2023-03-02T12:09:14.197Z,4.40
2023-03-02T12:10:14.200Z,4.42
2023-03-02T12:11:14.257Z,4.43
2023-03-02T12:12:14.369Z,4.44
2023-03-02T12:13:14.456Z,4.46
2023-03-02T12:14:14.569Z,4.47
2023-03-02T12:15:14.579Z,4.47
2023-03-02T12:16:14.711Z,4.51
2023-03-02T12:17:16.541Z,4.50
2023-03-02T12:18:14.885Z,4.50
2023-03-02T12:19:14.897Z,4.51
2023-03-02T12:20:15.026Z,4.50
2023-03-02T12:21:15.110Z,4.47
2023-03-02T12:22:15.221Z,4.50
2023-03-02T12:23:15.308Z,4.50
2023-03-02T12:24:15.441Z,4.50
2023-03-02T12:25:15.466Z,4.50
2023-03-02T12:26:15.585Z,4.50
2023-03-02T12:27:15.767Z,4.50
2023-03-02T12:28:15.855Z,4.47
2023-03-02T12:29:15.907Z,4.50
2023-03-02T12:30:15.939Z,4.51
2023-03-02T12:31:16.039Z,4.50
2023-03-02T12:32:16.116Z,4.51
2023-03-02T12:36:28.650Z,4.36
2023-03-02T12:39:40.937Z,4.25
2023-03-02T12:40:41.514Z,4.25
2023-03-02T12:41:41.743Z,4.25
2023-03-02T12:42:41.619Z,4.26
2023-03-02T12:43:41.755Z,4.26
2023-03-02T12:44:41.823Z,4.29
2023-03-02T12:45:41.896Z,4.32
2023-03-02T12:46:41.876Z,4.33
2023-03-02T12:47:42.267Z,4.36
2023-03-02T12:48:42.578Z,4.39
2023-03-02T12:49:42.192Z,4.39
2023-03-02T12:50:42.199Z,4.40
2023-03-02T12:51:42.435Z,4.42
2023-03-02T12:52:42.380Z,4.44
2023-03-02T12:55:52.119Z,4.37
2023-03-02T12:56:53.431Z,4.33
2023-03-02T12:57:53.210Z,4.32
2023-03-02T12:58:53.351Z,4.32
2023-03-02T12:59:53.607Z,4.34
2023-03-02T13:00:53.467Z,4.34
2023-03-02T13:01:53.425Z,4.36
2023-03-02T13:02:53.892Z,4.36
2023-03-02T13:03:53.665Z,4.37
2023-03-02T13:04:53.738Z,4.39
2023-03-02T13:05:53.799Z,4.40
2023-03-02T13:06:53.881Z,4.43
2023-03-02T13:07:53.965Z,4.44
2023-03-02T13:08:54.169Z,4.43
2023-03-02T13:09:56.964Z,4.46
2023-03-02T13:10:54.269Z,4.47
2023-03-02T13:11:54.327Z,4.50
2023-03-02T13:12:54.495Z,4.47
2023-03-02T13:13:54.423Z,4.50
2023-03-02T13:14:54.635Z,4.51
2023-03-02T13:15:54.628Z,4.50
2023-03-02T13:16:54.753Z,4.51
2023-03-02T13:17:54.756Z,4.54
2023-03-02T13:19:07.511Z,4.52
2023-03-02T13:19:54.912Z,4.52
2023-03-02T13:20:55.109Z,4.54
2023-03-02T13:21:55.060Z,4.55
2023-03-02T13:22:55.151Z,4.55
2023-03-02T13:23:55.211Z,4.55
2023-03-02T13:24:55.331Z,4.55
2023-03-02T13:25:55.375Z,4.55
2023-03-02T13:26:55.437Z,4.55
2023-03-02T13:27:55.525Z,4.57
2023-03-02T13:28:55.590Z,4.55
2023-03-02T13:29:55.764Z,4.57
2023-03-02T13:30:55.884Z,4.57
2023-03-02T13:31:55.858Z,4.55
2023-03-02T13:32:55.915Z,4.54
2023-03-02T13:33:56.016Z,4.54
2023-03-02T13:34:56.142Z,4.55
2023-03-02T13:35:56.188Z,4.52
2023-03-02T13:36:56.306Z,4.54
2023-03-02T13:37:56.412Z,4.52
2023-03-02T13:38:56.475Z,4.54
2023-03-02T13:39:56.539Z,4.52
2023-03-02T13:40:56.601Z,4.54
2023-03-02T13:41:56.711Z,4.54
2023-03-02T13:42:56.801Z,4.52
2023-03-02T13:43:56.853Z,4.54
2023-03-02T13:44:56.976Z,4.54
2023-03-02T13:45:57.104Z,4.55
2023-03-02T13:46:57.121Z,4.54
2023-03-02T13:47:57.193Z,4.54
2023-03-02T13:49:09.176Z,4.57
2023-03-02T13:49:57.516Z,4.57
2023-03-02T13:50:57.507Z,4.57
2023-03-02T13:51:58.012Z,4.55
2023-03-02T13:52:57.687Z,4.57
2023-03-02T13:53:57.788Z,4.54
2023-03-02T13:54:57.876Z,4.57
2023-03-02T13:55:57.953Z,4.57
2023-03-02T13:56:58.032Z,4.57
2023-03-02T13:57:58.072Z,4.57
2023-03-02T13:58:58.207Z,4.55
2023-03-02T13:59:58.273Z,4.55
2023-03-02T14:00:58.390Z,4.54
2023-03-02T14:01:58.382Z,4.54
2023-03-02T14:02:58.478Z,4.52
2023-03-02T14:03:58.610Z,4.54
2023-03-02T14:04:58.880Z,4.54
2023-03-02T14:05:58.757Z,4.54
2023-03-02T14:06:58.860Z,4.55
2023-03-02T14:07:58.919Z,4.54
2023-03-02T14:08:59.028Z,4.55
2023-03-02T14:09:59.093Z,4.55
2023-03-02T14:10:59.145Z,4.54
2023-03-02T14:11:59.198Z,4.55
2023-03-02T14:12:59.293Z,4.54
2023-03-02T14:13:59.362Z,4.54
2023-03-02T14:14:59.573Z,4.52
2023-03-02T14:15:59.617Z,4.54
2023-03-02T14:16:59.626Z,4.52
2023-03-02T14:17:59.672Z,4.52
2023-03-02T14:18:59.787Z,4.54
2023-03-02T14:19:59.881Z,4.52
2023-03-02T14:20:59.986Z,4.51
2023-03-02T14:21:59.990Z,4.52
2023-03-02T14:23:00.217Z,4.54
2023-03-02T14:24:00.231Z,4.54
2023-03-02T14:25:00.373Z,4.52
2023-03-02T14:26:00.324Z,4.52
2023-03-02T14:27:00.504Z,4.54
2023-03-02T14:28:00.522Z,4.52
2023-03-02T14:29:05.789Z,4.54
2023-03-02T14:30:00.754Z,4.54
2023-03-02T14:31:00.844Z,4.54
2023-03-02T14:32:00.955Z,4.55
2023-03-02T14:33:00.984Z,4.54
2023-03-02T14:34:01.033Z,4.54
2023-03-02T14:35:01.175Z,4.52
2023-03-02T14:36:01.246Z,4.51
2023-03-02T14:37:01.305Z,4.52
2023-03-02T14:38:01.347Z,4.52
2023-03-02T14:39:01.429Z,4.52
2023-03-02T14:40:01.594Z,4.54
2023-03-02T14:41:01.605Z,4.52
2023-03-02T14:42:01.756Z,4.52
2023-03-02T14:43:01.750Z,4.54
2023-03-02T14:44:01.861Z,4.52
2023-03-02T14:45:01.920Z,4.52
2023-03-02T14:46:02.007Z,4.52
2023-03-02T14:47:02.044Z,4.52
2023-03-02T14:48:02.160Z,4.52
2023-03-02T14:49:02.217Z,4.51
2023-03-02T14:50:02.361Z,4.52
2023-03-02T14:51:02.372Z,4.51
2023-03-02T14:52:02.524Z,4.51
2023-03-02T14:53:02.528Z,4.51
2023-03-02T14:54:02.646Z,4.50
2023-03-02T14:55:02.728Z,4.51
2023-03-02T14:56:02.822Z,4.50
2023-03-02T14:57:02.823Z,4.50
2023-03-02T14:58:02.930Z,4.51
2023-03-02T14:59:03.024Z,4.47
2023-03-02T15:00:03.117Z,4.51
2023-03-02T15:01:03.155Z,4.50
2023-03-02T15:02:12.992Z,4.50
2023-03-02T15:03:03.525Z,4.50
2023-03-02T15:04:03.454Z,4.51
2023-03-02T15:05:03.566Z,4.50
2023-03-02T15:06:03.632Z,4.51
2023-03-02T15:07:03.672Z,4.50
2023-03-02T15:08:03.780Z,4.50
2023-03-02T15:09:03.839Z,4.47
2023-03-02T15:10:03.970Z,4.47
2023-03-02T15:11:04.027Z,4.47
2023-03-02T15:12:04.116Z,4.47
2023-03-02T15:13:04.223Z,4.47
2023-03-02T15:14:04.320Z,4.50
2023-03-02T15:15:04.396Z,4.50
2023-03-02T15:16:04.535Z,4.47
2023-03-02T15:17:04.541Z,4.50
2023-03-02T15:18:04.652Z,4.50
2023-03-02T15:19:04.695Z,4.47
2023-03-02T15:20:04.811Z,4.47
2023-03-02T15:21:04.873Z,4.46
2023-03-02T15:22:04.967Z,4.46
2023-03-02T15:23:05.091Z,4.46
2023-03-02T15:24:05.193Z,4.47
2023-03-02T15:25:05.218Z,4.47
2023-03-02T15:26:05.298Z,4.50
2023-03-02T15:27:05.349Z,4.47
2023-03-02T15:28:05.461Z,4.47
2023-03-02T15:29:05.542Z,4.47
2023-03-02T15:30:05.615Z,4.50
2023-03-02T15:31:05.690Z,4.50
2023-03-02T15:32:05.779Z,4.50
2023-03-02T15:33:05.832Z,4.51
2023-03-02T15:34:05.934Z,4.51
2023-03-02T15:35:06.026Z,4.50
2023-03-02T15:36:06.172Z,4.51
2023-03-02T15:37:06.156Z,4.51
2023-03-02T15:38:06.254Z,4.51
2023-03-02T15:39:06.327Z,4.51
2023-03-02T15:40:06.409Z,4.52
2023-03-02T15:41:06.466Z,4.51
2023-03-02T15:42:06.577Z,4.51
2023-03-02T15:43:06.649Z,4.51
2023-03-02T15:44:06.749Z,4.54
2023-03-02T15:45:06.846Z,4.51
2023-03-02T15:46:06.933Z,4.50
2023-03-02T15:47:06.945Z,4.52
2023-03-02T15:48:07.056Z,4.51
2023-03-02T15:49:07.098Z,4.51
2023-03-02T15:50:07.254Z,4.51
2023-03-02T15:51:07.284Z,4.50
2023-03-02T15:52:07.384Z,4.50
2023-03-02T15:53:07.433Z,4.47
2023-03-02T15:54:07.550Z,4.47
2023-03-02T15:55:07.644Z,4.50
2023-03-02T15:56:07.718Z,4.47
2023-03-02T15:57:07.777Z,4.47
2023-03-02T15:58:07.845Z,4.46
2023-03-02T15:59:07.893Z,4.47
2023-03-02T16:00:08.020Z,4.47
2023-03-02T16:01:08.144Z,4.47
2023-03-02T16:02:08.223Z,4.44
2023-03-02T16:03:08.272Z,4.46
2023-03-02T16:04:08.352Z,4.46
2023-03-02T16:05:08.448Z,4.46
2023-03-02T16:06:08.498Z,4.46
2023-03-02T16:07:08.598Z,4.46
2023-03-02T16:08:08.700Z,4.47
2023-03-02T16:09:08.753Z,4.47
2023-03-02T16:10:08.986Z,4.47
2023-03-02T16:11:09.028Z,4.47
2023-03-02T16:12:09.021Z,4.46
2023-03-02T16:13:09.111Z,4.46
2023-03-02T16:14:09.224Z,4.47
2023-03-02T16:15:09.302Z,4.47
2023-03-02T16:16:09.418Z,4.47
2023-03-02T16:17:09.463Z,4.50
2023-03-02T16:18:09.533Z,4.50
2023-03-02T16:19:09.595Z,4.47
2023-03-02T16:20:09.784Z,4.50
2023-03-02T16:21:09.769Z,4.47
2023-03-02T16:22:09.858Z,4.50
2023-03-02T16:23:09.899Z,4.50
2023-03-02T16:24:10.027Z,4.50
2023-03-02T16:25:10.129Z,4.50
2023-03-02T16:26:10.210Z,4.50
2023-03-02T16:27:10.257Z,4.47
2023-03-02T16:28:10.352Z,4.47
2023-03-02T16:29:10.411Z,4.50
2023-03-02T16:30:10.565Z,4.50
2023-03-02T16:31:10.575Z,4.47
2023-03-02T16:32:10.820Z,4.47
2023-03-02T16:33:10.767Z,4.44
2023-03-02T16:34:10.881Z,4.44
2023-03-02T16:35:10.954Z,4.42
2023-03-02T16:36:11.005Z,4.42
2023-03-02T16:37:11.116Z,4.42
2023-03-02T16:38:11.165Z,4.42
2023-03-02T16:39:11.205Z,4.40
2023-03-02T16:40:11.304Z,4.40
2023-03-02T16:41:11.348Z,4.42
2023-03-02T16:42:11.471Z,4.40
2023-03-02T16:43:11.539Z,4.40
2023-03-02T16:44:11.771Z,4.42
2023-03-02T16:45:12.337Z,4.42
2023-03-02T17:30:23.294Z,3.18
2023-03-02T17:31:24.273Z,3.21
2023-03-02T17:32:24.458Z,3.27
2023-03-02T17:33:24.329Z,3.31
2023-03-02T17:34:24.386Z,3.39
2023-03-02T17:35:24.496Z,3.46
2023-03-02T17:36:24.552Z,3.49
2023-03-02T17:37:24.620Z,3.57
2023-03-02T17:38:24.702Z,3.58
2023-03-02T17:39:24.750Z,3.62
2023-03-02T17:40:24.841Z,3.67
2023-03-02T17:44:16.791Z,3.64
2023-03-02T17:45:17.692Z,3.64
2023-03-02T17:46:17.789Z,3.64
2023-03-02T17:47:17.843Z,3.67
2023-03-02T17:48:17.994Z,3.68
2023-03-02T17:49:17.994Z,3.71
2023-03-02T17:51:03.056Z,3.75
2023-03-02T17:51:18.140Z,3.79
2023-03-02T17:52:21.269Z,3.82
2023-03-02T18:12:09.478Z,3.10
2023-03-02T18:12:54.323Z,3.09
2023-03-02T18:13:54.769Z,3.13
2023-03-02T18:14:54.665Z,3.18
2023-03-02T18:15:52.611Z,3.24
2023-03-02T18:16:55.277Z,3.30
2023-03-02T18:17:53.559Z,3.39
2023-03-02T18:39:04.264Z,2.81
2023-03-02T18:40:09.167Z,2.82
2023-03-02T18:40:56.874Z,2.88
2023-03-02T18:47:22.359Z,3.05
2023-03-02T18:50:22.729Z,3.03
2023-03-02T18:50:39.199Z,3.06
2023-03-02T18:52:15.043Z,3.13
2023-03-02T18:52:27.849Z,3.16
2023-03-02T18:53:28.097Z,3.21
2023-03-02T18:54:31.749Z,3.28
2023-03-02T18:55:28.151Z,3.31
2023-03-02T18:56:28.316Z,3.36
2023-03-02T19:02:38.212Z,3.25
2023-03-02T19:03:38.982Z,3.27
2023-03-02T19:04:39.053Z,3.27
2023-03-02T19:05:39.151Z,3.28
2023-03-02T19:06:39.221Z,3.33
2023-03-02T19:07:39.262Z,3.36
2023-03-02T19:08:39.398Z,3.40
2023-03-02T19:09:39.585Z,3.44
2023-03-02T19:10:39.591Z,3.47
2023-03-02T19:11:39.620Z,3.50
2023-03-02T19:12:39.749Z,3.52
2023-03-02T19:13:39.808Z,3.54
2023-03-02T19:14:39.997Z,3.57
2023-03-02T19:15:39.959Z,3.58
2023-03-02T19:16:40.196Z,3.61
2023-03-02T19:17:40.112Z,3.61
2023-03-02T19:18:40.222Z,3.62
2023-03-02T19:19:43.252Z,3.64
2023-03-02T19:20:40.391Z,3.65
2023-03-02T19:21:40.432Z,3.68
2023-03-02T19:22:40.558Z,3.70
2023-03-02T19:23:40.612Z,3.68
2023-03-02T19:24:40.768Z,3.70
2023-03-02T19:25:40.781Z,3.71
2023-03-02T19:26:40.898Z,3.72
2023-03-02T19:27:40.959Z,3.72
2023-03-02T19:28:41.050Z,3.72
2023-03-02T19:29:41.157Z,3.72
2023-03-02T19:30:41.198Z,3.76
2023-03-02T19:31:41.365Z,3.76
2023-03-02T19:32:54.973Z,3.76
2023-03-02T19:33:41.475Z,3.76
2023-03-02T19:34:41.552Z,3.78
2023-03-02T19:35:41.615Z,3.76
2023-03-02T19:36:41.683Z,3.78
2023-03-02T19:37:41.734Z,3.76
2023-03-02T19:38:41.844Z,3.78
2023-03-02T19:39:41.919Z,3.79
2023-03-02T19:40:41.988Z,3.78
2023-03-02T19:41:42.055Z,3.79
2023-03-02T19:42:42.169Z,3.79
2023-03-02T19:43:42.227Z,3.78
2023-03-02T19:44:42.360Z,3.79
2023-03-02T19:45:42.480Z,3.79
2023-03-02T19:46:42.518Z,3.79
2023-03-02T19:47:42.564Z,3.80
2023-03-02T19:48:42.669Z,3.79
2023-03-02T19:49:42.759Z,3.80
2023-03-02T19:50:42.832Z,3.79
2023-03-02T19:51:43.589Z,3.79
2023-03-02T19:52:43.007Z,3.79
2023-03-02T19:53:43.062Z,3.80
2023-03-02T19:54:43.186Z,3.80
2023-03-02T19:55:43.275Z,3.80
2023-03-02T19:56:43.333Z,3.82
2023-03-02T19:57:43.415Z,3.82
2023-03-02T19:58:43.468Z,3.80
2023-03-02T19:59:43.554Z,3.82
2023-03-02T20:00:43.620Z,3.82
2023-03-02T20:01:43.675Z,3.80
2023-03-02T20:02:43.790Z,3.83
2023-03-02T20:03:43.851Z,3.82
2023-03-02T20:04:43.965Z,3.83
2023-03-02T20:05:44.050Z,3.83
2023-03-02T20:06:44.107Z,3.83
2023-03-02T20:07:44.228Z,3.83
2023-03-02T20:08:44.355Z,3.83
2023-03-02T20:09:44.526Z,3.83
2023-03-02T20:10:44.422Z,3.80
2023-03-02T20:11:44.490Z,3.83
2023-03-02T20:12:44.618Z,3.82
2023-03-02T20:13:44.672Z,3.83
2023-03-02T20:14:44.843Z,3.83
2023-03-02T20:15:44.854Z,3.83
2023-03-02T20:16:45.009Z,3.83
2023-03-02T20:17:45.031Z,3.83
2023-03-02T20:18:45.090Z,3.85
2023-03-02T20:19:45.216Z,3.85
2023-03-02T20:20:45.288Z,3.85
2023-03-02T20:21:45.362Z,3.85
2023-03-02T20:22:45.476Z,3.85
2023-03-02T20:23:45.559Z,3.85
2023-03-02T20:24:45.667Z,3.86
2023-03-02T20:25:47.935Z,3.88
2023-03-02T20:26:45.752Z,3.89
2023-03-02T20:27:45.792Z,3.88
2023-03-02T20:28:45.901Z,3.88
2023-03-02T20:29:45.971Z,3.88
2023-03-02T20:30:46.123Z,3.88
2023-03-02T20:31:46.112Z,3.88
2023-03-02T20:32:46.228Z,3.88
